createdAt,value
2019-04-16T00:01:23.757Z,10.33
2019-04-16T00:03:56.252Z,10.37
2019-04-16T00:06:29.029Z,9.87
2019-04-16T00:09:10.864Z,10.33
2019-04-16T00:11:40.638Z,10.20
2019-04-16T00:14:10.393Z,10.47
2019-04-16T00:16:38.595Z,10.33
2019-04-16T00:19:06.865Z,10.90
2019-04-16T00:21:38.513Z,10.30
2019-04-16T00:24:11.012Z,10.23
2019-04-16T00:26:39.125Z,10.90
2019-04-16T00:29:07.352Z,10.73
2019-04-16T00:31:37.075Z,11.43
2019-04-16T00:34:05.568Z,11.40
2019-04-16T00:36:33.789Z,11.23
2019-04-16T00:39:01.920Z,10.60
2019-04-16T00:41:30.035Z,11.53
2019-04-16T00:43:58.189Z,11.07
2019-04-16T00:46:26.364Z,10.87
2019-04-16T00:48:54.500Z,11.20
2019-04-16T00:51:22.718Z,11.50
2019-04-16T00:53:50.910Z,11.73
2019-04-16T00:56:19.029Z,11.70
2019-04-16T00:58:49.368Z,11.33
2019-04-16T01:01:17.006Z,12.43
2019-04-16T01:03:45.155Z,11.30
2019-04-16T01:06:13.274Z,12.40
2019-04-16T01:08:53.842Z,12.00
2019-04-16T01:11:11.252Z,11.70
2019-04-16T01:13:40.155Z,11.53
2019-04-16T01:16:08.363Z,11.37
2019-04-16T01:18:38.781Z,11.47
2019-04-16T01:21:06.551Z,12.00
2019-04-16T01:23:34.695Z,11.80
2019-04-16T01:26:02.911Z,12.57
2019-04-16T01:28:32.762Z,11.43
2019-04-16T01:31:08.141Z,11.03
2019-04-16T01:33:36.780Z,12.03
2019-04-16T01:36:06.683Z,11.30
2019-04-16T01:38:42.700Z,10.47
2019-04-16T01:41:12.462Z,11.33
2019-04-16T01:43:40.598Z,10.43
2019-04-16T01:46:08.785Z,10.77
2019-04-16T01:48:38.927Z,10.27
2019-04-16T01:51:06.814Z,9.87
2019-04-16T01:53:35.041Z,10.47
2019-04-16T01:56:03.302Z,10.37
2019-04-16T01:58:33.821Z,10.50
2019-04-16T02:01:01.300Z,10.23
2019-04-16T02:03:29.512Z,9.10
2019-04-16T02:05:57.997Z,10.40
2019-04-16T02:08:28.265Z,10.03
2019-04-16T02:10:56.028Z,10.00
2019-04-16T02:13:24.148Z,9.67
2019-04-16T02:15:53.563Z,10.20
2019-04-16T02:18:22.139Z,9.37
2019-04-16T02:20:50.262Z,9.30
2019-04-16T02:23:18.469Z,10.07
2019-04-16T02:25:48.571Z,9.97
2019-04-16T02:28:16.511Z,9.10
2019-04-16T02:30:44.631Z,10.13
2019-04-16T02:33:12.930Z,10.37
2019-04-16T02:35:42.414Z,9.33
2019-04-16T02:38:13.185Z,9.63
2019-04-16T02:40:40.389Z,9.70
2019-04-16T02:43:08.594Z,11.20
2019-04-16T02:45:36.713Z,10.47
2019-04-16T02:48:05.158Z,10.20
2019-04-16T02:50:35.367Z,10.53
2019-04-16T02:53:17.514Z,10.73
2019-04-16T02:56:03.784Z,9.67
2019-04-16T02:58:34.404Z,10.23
2019-04-16T03:01:08.069Z,9.87
2019-04-16T03:03:37.907Z,10.17
2019-04-16T03:06:06.167Z,10.50
2019-04-16T03:08:36.132Z,10.20
2019-04-16T03:11:04.240Z,9.83
2019-04-16T03:13:32.344Z,9.70
2019-04-16T03:16:08.582Z,10.10
2019-04-16T03:18:41.240Z,10.80
2019-04-16T03:21:09.452Z,9.83
2019-04-16T03:23:37.877Z,10.30
2019-04-16T03:26:06.228Z,11.13
2019-04-16T03:28:34.440Z,10.53
2019-04-16T03:31:07.484Z,10.77
2019-04-16T03:33:32.570Z,10.97
2019-04-16T03:36:00.794Z,12.00
2019-04-16T03:38:28.983Z,11.30
2019-04-16T03:40:57.125Z,11.77
2019-04-16T03:43:25.268Z,10.97
2019-04-16T03:45:53.468Z,10.47
2019-04-16T03:48:24.431Z,10.07
2019-04-16T03:50:51.532Z,10.60
2019-04-16T03:53:19.664Z,11.23
2019-04-16T03:55:47.811Z,11.43
2019-04-16T03:58:15.923Z,11.50
2019-04-16T04:00:45.080Z,11.50
2019-04-16T04:03:13.322Z,10.10
2019-04-16T04:05:41.532Z,11.90
2019-04-16T04:08:09.648Z,11.60
2019-04-16T04:10:37.926Z,11.60
2019-04-16T04:13:06.268Z,12.40
2019-04-16T04:15:34.399Z,12.13
2019-04-16T04:18:02.676Z,12.63
2019-04-16T04:20:31.070Z,12.17
2019-04-16T04:22:59.211Z,11.77
2019-04-16T04:25:27.344Z,11.90
2019-04-16T04:27:55.573Z,12.43
2019-04-16T04:30:25.629Z,12.50
2019-04-16T04:32:54.798Z,13.50
2019-04-16T04:35:22.910Z,12.87
2019-04-16T04:37:51.065Z,13.30
2019-04-16T04:40:19.189Z,11.47
2019-04-16T04:42:49.017Z,11.70
2019-04-16T04:45:17.352Z,13.10
2019-04-16T04:47:45.455Z,11.80
2019-04-16T04:50:13.760Z,12.57
2019-04-16T04:52:43.267Z,12.67
2019-04-16T04:55:11.792Z,13.53
2019-04-16T04:57:39.907Z,12.70
2019-04-16T05:00:08.672Z,12.00
2019-04-16T05:02:37.735Z,12.47
2019-04-16T05:05:26.178Z,12.47
2019-04-16T05:07:54.308Z,11.27
2019-04-16T05:10:22.435Z,13.93
2019-04-16T05:12:53.532Z,11.90
2019-04-16T05:15:20.499Z,11.77
2019-04-16T05:17:48.648Z,12.20
2019-04-16T05:20:16.845Z,11.80
2019-04-16T05:22:45.506Z,11.30
2019-04-16T05:25:14.589Z,12.07
2019-04-16T05:27:42.709Z,12.77
2019-04-16T05:30:11.145Z,12.27
2019-04-16T05:32:39.271Z,12.97
2019-04-16T05:35:10.271Z,12.97
2019-04-16T05:37:37.419Z,12.03
2019-04-16T05:40:06.128Z,11.37
2019-04-16T05:42:34.343Z,11.90
2019-04-16T05:45:05.654Z,12.10
2019-04-16T05:47:32.567Z,10.47
2019-04-16T05:50:00.685Z,12.27
2019-04-16T05:52:28.819Z,12.27
2019-04-16T05:55:01.214Z,11.53
2019-04-16T05:57:30.059Z,11.67
2019-04-16T05:59:58.183Z,12.30
2019-04-16T06:02:42.418Z,12.03
2019-04-16T06:05:10.706Z,12.03
2019-04-16T06:07:38.857Z,12.07
2019-04-16T06:10:07.835Z,11.93
2019-04-16T06:12:54.096Z,11.80
2019-04-16T06:15:26.345Z,10.97
2019-04-16T06:17:58.846Z,12.57
2019-04-16T06:20:28.623Z,11.67
2019-04-16T06:23:07.576Z,10.73
2019-04-16T06:25:52.730Z,11.77
2019-04-16T06:28:25.203Z,11.93
2019-04-16T06:31:05.285Z,12.57
2019-04-16T06:33:35.574Z,10.77
2019-04-16T06:36:14.093Z,11.90
2019-04-16T06:39:02.641Z,11.87
2019-04-16T06:41:41.685Z,11.10
2019-04-16T06:44:04.275Z,12.53
2019-04-16T06:46:34.152Z,11.50
2019-04-16T06:49:19.297Z,10.53
2019-04-16T06:51:59.678Z,10.93
2019-04-16T06:54:47.892Z,11.30
2019-04-16T06:57:26.783Z,10.07
2019-04-16T06:59:55.580Z,9.67
2019-04-16T07:02:44.012Z,9.97
2019-04-16T07:05:16.823Z,10.17
2019-04-16T07:08:03.399Z,10.10
2019-04-16T07:10:49.657Z,9.83
2019-04-16T07:13:17.782Z,10.37
2019-04-16T07:15:45.990Z,10.83
2019-04-16T07:18:14.194Z,9.70
2019-04-16T07:20:45.720Z,10.80
2019-04-16T07:23:12.227Z,10.43
2019-04-16T07:25:43.304Z,10.47
2019-04-16T07:28:29.018Z,10.87
2019-04-16T07:30:58.876Z,10.90
2019-04-16T07:33:28.703Z,10.13
2019-04-16T07:36:04.296Z,10.67
2019-04-16T07:38:35.135Z,10.83
2019-04-16T07:41:24.022Z,10.30
2019-04-16T07:44:10.723Z,10.23
2019-04-16T07:46:44.204Z,10.43
2019-04-16T07:49:29.665Z,10.57
2019-04-16T07:52:14.311Z,11.60
2019-04-16T07:55:00.470Z,10.63
2019-04-16T07:57:28.602Z,11.60
2019-04-16T07:59:56.907Z,11.37
2019-04-16T08:02:25.505Z,11.87
2019-04-16T08:04:54.013Z,10.23
2019-04-16T08:07:22.265Z,11.20
2019-04-16T08:09:50.408Z,11.70
2019-04-16T08:12:29.841Z,10.73
2019-04-16T08:14:48.379Z,10.07
2019-04-16T08:17:16.503Z,10.67
2019-04-16T08:19:49.103Z,10.27
2019-04-16T08:22:15.826Z,11.20
2019-04-16T08:25:02.895Z,11.23
2019-04-16T08:27:28.364Z,10.43
2019-04-16T08:30:02.197Z,9.87
2019-04-16T08:32:26.705Z,12.30
2019-04-16T08:34:54.852Z,10.77
2019-04-16T08:37:22.971Z,11.27
2019-04-16T08:39:51.108Z,10.20
2019-04-16T08:42:24.212Z,10.97
2019-04-16T08:44:49.170Z,12.27
2019-04-16T08:47:17.283Z,10.87
2019-04-16T08:49:45.596Z,10.93
2019-04-16T08:52:13.829Z,10.53
2019-04-16T08:54:42.051Z,12.90
2019-04-16T08:57:10.169Z,11.53
2019-04-16T08:59:39.490Z,11.20
2019-04-16T09:02:08.706Z,11.70
2019-04-16T09:04:36.922Z,11.47
2019-04-16T09:07:12.012Z,9.60
2019-04-16T09:09:36.530Z,11.37
2019-04-16T09:12:08.892Z,10.87
2019-04-16T09:14:37.388Z,11.73
2019-04-16T09:17:18.888Z,10.87
2019-04-16T09:19:51.831Z,11.13
2019-04-16T09:22:19.973Z,11.37
2019-04-16T09:24:52.705Z,11.13
2019-04-16T09:27:28.595Z,11.43
2019-04-16T09:30:11.024Z,11.33
2019-04-16T09:32:52.707Z,11.63
2019-04-16T09:35:22.545Z,11.27
2019-04-16T09:37:55.042Z,10.47
2019-04-16T09:40:27.641Z,10.33
2019-04-16T09:42:56.020Z,11.03
2019-04-16T09:45:25.007Z,11.07
2019-04-16T09:47:53.354Z,10.17
2019-04-16T09:50:21.772Z,11.43
2019-04-16T09:52:52.416Z,9.07
2019-04-16T09:55:20.153Z,11.00
2019-04-16T09:57:48.286Z,10.73
2019-04-16T10:00:30.825Z,10.50
2019-04-16T10:03:00.633Z,11.50
2019-04-16T10:05:29.688Z,12.10
2019-04-16T10:07:58.486Z,11.50
2019-04-16T10:10:27.854Z,11.93
2019-04-16T10:12:56.564Z,12.13
2019-04-16T10:15:24.772Z,12.10
2019-04-16T10:17:53.669Z,12.67
2019-04-16T10:20:22.265Z,10.87
2019-04-16T10:22:50.585Z,11.70
2019-04-16T10:25:18.777Z,11.67
2019-04-16T10:27:48.670Z,12.20
2019-04-16T10:30:21.676Z,11.57
2019-04-16T10:32:49.896Z,12.03
2019-04-16T10:35:18.348Z,11.50
2019-04-16T10:37:46.831Z,12.00
2019-04-16T10:40:25.764Z,11.47
2019-04-16T10:43:12.807Z,12.10
2019-04-16T10:45:42.742Z,12.03
2019-04-16T10:48:12.575Z,12.07
2019-04-16T10:50:45.215Z,12.90
2019-04-16T10:53:17.712Z,11.83
2019-04-16T10:56:03.875Z,12.77
2019-04-16T10:58:49.897Z,11.53
2019-04-16T11:01:37.941Z,12.80
2019-04-16T11:04:08.049Z,12.50
2019-04-16T11:06:38.544Z,12.10
2019-04-16T11:09:07.343Z,12.10
2019-04-16T11:11:35.710Z,12.03
2019-04-16T11:14:04.178Z,12.37
2019-04-16T11:16:35.708Z,12.93
2019-04-16T11:19:02.250Z,11.87
2019-04-16T11:21:30.441Z,11.93
2019-04-16T11:23:58.639Z,11.80
2019-04-16T11:26:26.828Z,12.77
2019-04-16T11:28:54.986Z,11.93
2019-04-16T11:31:24.793Z,12.07
2019-04-16T11:33:52.928Z,10.63
2019-04-16T11:36:21.217Z,10.77
2019-04-16T11:38:49.456Z,11.13
2019-04-16T11:41:17.644Z,10.47
2019-04-16T11:43:45.776Z,10.20
2019-04-16T11:46:13.963Z,10.30
2019-04-16T11:48:42.188Z,10.77
2019-04-16T11:51:10.460Z,11.47
2019-04-16T11:53:38.626Z,10.03
2019-04-16T11:56:06.833Z,11.60
2019-04-16T11:58:39.500Z,10.30
2019-04-16T12:01:25.973Z,9.90
2019-04-16T12:03:58.592Z,8.40
2019-04-16T12:06:29.021Z,8.67
2019-04-16T12:09:13.990Z,9.80
2019-04-16T12:11:53.024Z,10.20
2019-04-16T12:14:34.720Z,9.77
2019-04-16T12:17:19.655Z,7.50
2019-04-16T12:19:49.440Z,7.70
2019-04-16T12:22:25.048Z,6.73
2019-04-16T12:24:54.991Z,7.47
2019-04-16T12:27:36.990Z,8.27
2019-04-16T12:30:14.012Z,7.83
2019-04-16T12:32:59.008Z,8.13
2019-04-16T12:35:40.696Z,7.80
2019-04-16T12:38:28.563Z,5.40
2019-04-16T12:41:01.299Z,6.60
2019-04-16T12:43:34.079Z,4.80
2019-04-16T12:46:20.440Z,4.00
2019-04-16T12:49:02.265Z,3.90
2019-04-16T12:51:39.817Z,4.13
2019-04-16T12:54:16.129Z,4.20
2019-04-16T12:56:49.267Z,5.07
2019-04-16T12:59:22.124Z,4.83
2019-04-16T13:02:05.550Z,4.90
2019-04-16T13:04:38.328Z,4.67
2019-04-16T13:07:11.358Z,4.90
2019-04-16T13:09:41.245Z,4.80
2019-04-16T13:12:11.226Z,4.67
2019-04-16T13:15:00.559Z,5.20
2019-04-16T13:17:21.611Z,4.70
2019-04-16T13:20:07.720Z,4.60
2019-04-16T13:22:40.493Z,5.20
2019-04-16T13:25:13.076Z,4.90
2019-04-16T13:27:42.848Z,5.13
2019-04-16T13:30:11.128Z,6.03
2019-04-16T13:32:39.247Z,5.73
2019-04-16T13:35:07.752Z,6.33
2019-04-16T13:37:37.841Z,6.47
2019-04-16T13:40:10.462Z,6.13
2019-04-16T13:42:38.576Z,5.80
2019-04-16T13:45:21.827Z,6.67
2019-04-16T13:47:54.834Z,7.07
2019-04-16T13:50:24.467Z,6.87
2019-04-16T13:52:55.150Z,8.00
2019-04-16T13:55:44.577Z,6.20
2019-04-16T13:58:13.425Z,5.73
2019-04-16T14:00:43.231Z,6.23
2019-04-16T14:03:13.250Z,6.77
2019-04-16T14:05:42.782Z,6.60
2019-04-16T14:08:11.136Z,6.13
2019-04-16T14:10:43.046Z,6.17
2019-04-16T14:13:13.234Z,6.20
2019-04-16T14:15:40.611Z,6.07
2019-04-16T14:18:09.038Z,6.40
2019-04-16T14:20:37.195Z,5.87
2019-04-16T14:23:05.306Z,5.87
2019-04-16T14:25:33.437Z,5.70
2019-04-16T14:28:03.541Z,6.80
2019-04-16T14:30:33.052Z,6.10
2019-04-16T14:33:01.164Z,6.27
2019-04-16T14:35:33.594Z,6.87
2019-04-16T14:38:00.802Z,6.30
2019-04-16T14:40:29.224Z,6.60
2019-04-16T14:42:58.253Z,7.80
2019-04-16T14:45:57.530Z,6.83
2019-04-16T14:48:13.506Z,5.97
2019-04-16T14:50:41.704Z,5.63
2019-04-16T14:53:10.085Z,6.53
2019-04-16T14:55:59.090Z,6.43
2019-04-16T14:58:29.955Z,6.30
2019-04-16T15:01:02.432Z,6.23
2019-04-16T15:03:35.427Z,5.83
2019-04-16T15:06:08.292Z,5.83
2019-04-16T15:08:38.041Z,6.57
2019-04-16T15:11:13.429Z,5.83
2019-04-16T15:13:46.583Z,5.77
2019-04-16T15:16:25.160Z,6.40
2019-04-16T15:19:11.603Z,5.10
2019-04-16T15:21:57.652Z,5.67
2019-04-16T15:24:33.326Z,6.20
2019-04-16T15:27:03.087Z,6.40
2019-04-16T15:29:44.835Z,5.50
2019-04-16T15:32:14.613Z,5.90
2019-04-16T15:34:44.373Z,6.00
2019-04-16T15:37:26.745Z,5.73
2019-04-16T15:39:59.298Z,5.50
2019-04-16T15:42:28.064Z,5.47
2019-04-16T15:44:58.011Z,5.27
2019-04-16T15:47:32.391Z,5.33
2019-04-16T15:50:04.945Z,4.93
2019-04-16T15:52:40.511Z,5.40
2019-04-16T15:55:10.356Z,5.83
2019-04-16T15:57:52.360Z,5.50
2019-04-16T16:00:27.942Z,5.33
2019-04-16T16:03:14.057Z,4.87
2019-04-16T16:05:52.541Z,3.63
2019-04-16T16:08:30.484Z,2.97
2019-04-16T16:11:18.409Z,2.60
2019-04-16T16:13:46.540Z,2.80
2019-04-16T16:16:17.960Z,2.90
2019-04-16T16:18:44.717Z,3.47
2019-04-16T16:21:12.844Z,3.30
2019-04-16T16:23:41.004Z,2.90
2019-04-16T16:26:09.108Z,2.50
2019-04-16T16:28:37.252Z,2.50
2019-04-16T16:31:05.613Z,2.73
2019-04-16T16:33:33.821Z,2.43
2019-04-16T16:36:01.952Z,2.30
2019-04-16T16:38:30.071Z,1.70
2019-04-16T16:40:58.221Z,2.00
2019-04-16T16:43:26.376Z,1.90
2019-04-16T16:45:56.278Z,1.80
2019-04-16T16:48:25.870Z,2.03
2019-04-16T16:50:54.133Z,1.80
2019-04-16T16:53:26.829Z,1.77
2019-04-16T16:55:56.643Z,1.30
2019-04-16T16:58:26.796Z,1.20
2019-04-16T17:01:14.021Z,1.00
2019-04-16T17:03:44.021Z,0.90
2019-04-16T17:06:13.860Z,1.37
2019-04-16T17:08:41.961Z,1.20
2019-04-16T17:11:16.554Z,1.10
2019-04-16T17:13:40.698Z,1.20
2019-04-16T17:16:13.322Z,1.10
2019-04-16T17:18:38.687Z,1.27
2019-04-16T17:21:06.897Z,1.03
2019-04-16T17:23:35.216Z,1.30
2019-04-16T17:26:03.520Z,3.53
2019-04-16T17:28:31.809Z,2.60
2019-04-16T17:31:00.013Z,4.77
2019-04-16T17:33:28.116Z,2.33
2019-04-16T17:35:56.516Z,3.67
2019-04-16T17:38:24.912Z,2.70
2019-04-16T17:40:58.702Z,2.00
2019-04-16T17:43:35.462Z,2.10
2019-04-16T17:46:05.346Z,1.93
2019-04-16T17:48:41.003Z,1.60
2019-04-16T17:51:10.783Z,1.60
2019-04-16T17:53:43.309Z,1.40
2019-04-16T17:56:21.888Z,1.63
2019-04-16T17:58:57.079Z,1.40
2019-04-16T18:01:26.869Z,2.00
2019-04-16T18:03:56.895Z,1.40
2019-04-16T18:06:43.010Z,1.40
2019-04-16T18:09:15.779Z,1.40
2019-04-16T18:12:01.066Z,1.67
2019-04-16T18:14:47.377Z,1.63
2019-04-16T18:17:29.121Z,1.50
2019-04-16T18:19:58.964Z,1.67
2019-04-16T18:22:34.765Z,1.80
2019-04-16T18:25:21.360Z,1.60
2019-04-16T18:27:51.301Z,1.80
2019-04-16T18:30:36.208Z,2.27
2019-04-16T18:33:09.249Z,2.30
2019-04-16T18:35:39.175Z,2.20
2019-04-16T18:38:22.241Z,2.30
2019-04-16T18:41:10.639Z,2.23
2019-04-16T18:43:52.499Z,2.10
2019-04-16T18:46:30.137Z,2.20
2019-04-16T18:49:05.891Z,2.40
2019-04-16T18:51:34.377Z,2.47
2019-04-16T18:54:02.605Z,2.43
2019-04-16T18:56:30.717Z,1.70
2019-04-16T18:58:58.974Z,1.90
2019-04-16T19:01:29.662Z,1.90
2019-04-16T19:03:58.897Z,1.90
2019-04-16T19:06:27.085Z,1.90
2019-04-16T19:08:55.216Z,2.20
2019-04-16T19:11:23.322Z,1.90
2019-04-16T19:13:51.445Z,1.73
2019-04-16T19:16:19.582Z,2.10
2019-04-16T19:18:47.717Z,2.13
2019-04-16T19:21:15.833Z,2.27
2019-04-16T19:23:44.024Z,2.50
2019-04-16T19:26:12.132Z,2.67
2019-04-16T19:28:40.468Z,2.70
2019-04-16T19:31:08.652Z,2.23
2019-04-16T19:33:38.476Z,2.20
2019-04-16T19:36:06.614Z,2.80
2019-04-16T19:38:35.755Z,2.60
2019-04-16T19:41:05.304Z,2.37
2019-04-16T19:43:35.331Z,2.10
2019-04-16T19:46:03.845Z,2.30
2019-04-16T19:48:35.775Z,2.23
2019-04-16T19:51:02.069Z,2.90
2019-04-16T19:53:30.239Z,2.40
2019-04-16T19:55:58.514Z,2.60
2019-04-16T19:58:26.621Z,2.63
2019-04-16T20:00:57.397Z,2.93
2019-04-16T20:03:24.763Z,2.77
2019-04-16T20:05:54.903Z,2.33
2019-04-16T20:08:23.140Z,2.50
2019-04-16T20:10:51.267Z,2.87
2019-04-16T20:13:19.368Z,3.10
2019-04-16T20:15:47.606Z,2.87
2019-04-16T20:18:16.592Z,2.90
2019-04-16T20:20:47.106Z,3.00
2019-04-16T20:23:14.552Z,2.60
2019-04-16T20:25:42.688Z,2.63
2019-04-16T20:28:15.346Z,2.60
2019-04-16T20:30:40.647Z,2.70
2019-04-16T20:33:08.766Z,2.70
2019-04-16T20:35:36.959Z,2.37
2019-04-16T20:38:05.120Z,2.37
2019-04-16T20:40:33.294Z,2.40
2019-04-16T20:43:01.729Z,2.90
2019-04-16T20:45:29.929Z,3.40
2019-04-16T20:47:58.075Z,3.43
2019-04-16T20:50:26.205Z,2.83
2019-04-16T20:52:54.432Z,3.60
2019-04-16T20:55:22.634Z,3.50
2019-04-16T20:57:50.773Z,3.10
2019-04-16T21:00:29.465Z,2.77
2019-04-16T21:02:57.613Z,2.77
2019-04-16T21:05:25.733Z,2.60
2019-04-16T21:07:54.225Z,2.70
2019-04-16T21:10:22.531Z,2.67
2019-04-16T21:12:50.712Z,3.00
2019-04-16T21:15:18.849Z,3.10
2019-04-16T21:17:47.027Z,2.77
2019-04-16T21:20:19.095Z,2.87
2019-04-16T21:22:45.016Z,2.73
2019-04-16T21:25:13.948Z,3.03
2019-04-16T21:27:52.956Z,2.60
2019-04-16T21:30:21.079Z,2.23
2019-04-16T21:33:03.268Z,2.40
2019-04-16T21:35:42.244Z,2.33
2019-04-16T21:38:17.816Z,2.20
2019-04-16T21:40:45.966Z,2.60
2019-04-16T21:43:14.077Z,2.63
2019-04-16T21:45:42.195Z,2.33
2019-04-16T21:48:12.424Z,2.17
2019-04-16T21:50:40.151Z,2.43
2019-04-16T21:53:08.259Z,2.33
2019-04-16T21:55:36.388Z,2.30
2019-04-16T21:58:04.509Z,2.17
2019-04-16T22:00:37.312Z,2.47
2019-04-16T22:03:10.112Z,2.40
2019-04-16T22:05:36.908Z,2.17
2019-04-16T22:08:05.191Z,2.33
2019-04-16T22:10:33.328Z,2.50
2019-04-16T22:13:01.800Z,2.40
2019-04-16T22:15:29.928Z,2.40
2019-04-16T22:17:58.076Z,2.57
2019-04-16T22:20:26.265Z,2.30
2019-04-16T22:22:54.387Z,2.20
2019-04-16T22:25:23.716Z,2.10
2019-04-16T22:27:52.361Z,2.33
2019-04-16T22:30:20.473Z,2.10
2019-04-16T22:32:48.610Z,2.33
2019-04-16T22:35:16.715Z,2.50
2019-04-16T22:37:44.845Z,2.50
2019-04-16T22:40:30.816Z,2.83
2019-04-16T22:43:06.309Z,2.93
2019-04-16T22:45:40.980Z,2.67
2019-04-16T22:48:09.216Z,2.70
2019-04-16T22:50:37.996Z,2.50
2019-04-16T22:53:06.932Z,2.70
2019-04-16T22:55:35.040Z,2.70
2019-04-16T22:58:04.692Z,2.87
2019-04-16T23:00:34.640Z,2.93
2019-04-16T23:03:02.813Z,2.53
2019-04-16T23:05:32.015Z,2.30
2019-04-16T23:08:00.601Z,2.80
2019-04-16T23:10:28.846Z,3.00
2019-04-16T23:13:00.329Z,2.80
2019-04-16T23:15:27.051Z,2.80
2019-04-16T23:17:55.164Z,3.10
2019-04-16T23:20:29.427Z,3.10
2019-04-16T23:22:53.148Z,2.73
2019-04-16T23:25:27.014Z,2.83
2019-04-16T23:27:51.426Z,2.80
2019-04-16T23:30:19.560Z,2.83
2019-04-16T23:32:47.672Z,3.03
2019-04-16T23:35:15.872Z,2.90
2019-04-16T23:37:44.070Z,3.30
2019-04-16T23:40:12.297Z,3.13
2019-04-16T23:42:42.177Z,3.33
2019-04-16T23:45:31.417Z,2.93
2019-04-16T23:48:02.001Z,3.10
2019-04-16T23:50:44.734Z,3.23
2019-04-16T23:53:14.853Z,4.10
2019-04-16T23:56:00.007Z,4.47
2019-04-16T23:58:32.583Z,3.67
